| time (UTC) | temp F | wind direction | speed MPH | gust MPH | rain 1hr in | rain 24hr in | rain mn in | humidity % | barometer mb |
| 20260509223005 | 87 | 145 | 6.0 | 13.0 | 0.00 | 0.19 | 0.01 | 49 | 1003.0 |
| 20260509221506 | 87 | 167 | 5.0 | 12.0 | 0.00 | 0.19 | 0.01 | 49 | 1003.4 |
| 20260509220018 | 87 | 49 | 6.0 | 12.0 | 0.00 | 0.19 | 0.01 | 48 | 1003.6 |
| 20260509214520 | 87 | 102 | 3.0 | 12.0 | 0.00 | 0.19 | 0.01 | 48 | 1003.9 |
| 20260509213104 | 88 | 210 | 2.0 | 7.0 | 0.00 | 0.19 | 0.01 | 47 | 1004.1 |
| 20260509211510 | 87 | 84 | 4.0 | 11.0 | 0.00 | 0.19 | 0.01 | 46 | 1004.4 |
| 20260509210018 | 87 | 141 | 4.0 | 11.0 | 0.00 | 0.19 | 0.01 | 48 | 1004.4 |
| 20260509204503 | 87 | 128 | 3.0 | 9.0 | 0.00 | 0.19 | 0.01 | 48 | 1004.6 |
| 20260509203120 | 87 | 133 | 4.0 | 10.0 | 0.00 | 0.19 | 0.01 | 48 | 1004.8 |
| 20260509201517 | 87 | 87 | 3.0 | 10.0 | 0.00 | 0.19 | 0.01 | 48 | 1005.0 |
| 20260509200020 | 86 | 110 | 5.0 | 9.0 | 0.00 | 0.19 | 0.01 | 52 | 1005.4 |
| 20260509194504 | 85 | 40 | 4.0 | 8.0 | 0.00 | 0.19 | 0.01 | 52 | 1005.7 |
| 20260509193103 | 85 | 127 | 4.0 | 9.0 | 0.00 | 0.19 | 0.01 | 53 | 1005.8 |
| 20260509191518 | 84 | 107 | 3.0 | 9.0 | 0.00 | 0.19 | 0.01 | 52 | 1006.0 |
| 20260509190018 | 84 | 74 | 2.0 | 6.0 | 0.00 | 0.19 | 0.01 | 56 | 1006.2 |
| 20260509184525 | 83 | 53 | 4.0 | 8.0 | 0.00 | 0.19 | 0.01 | 55 | 1006.2 |
| 20260509183007 | 83 | 91 | 2.0 | 7.0 | 0.00 | 0.19 | 0.01 | 55 | 1006.3 |
| 20260509181508 | 83 | 79 | 1.0 | 8.0 | 0.00 | 0.19 | 0.01 | 56 | 1006.6 |
| 20260509180017 | 82 | 85 | 4.0 | 9.0 | 0.00 | 0.19 | 0.01 | 57 | 1006.9 |
| 20260509174516 | 82 | 110 | 0.0 | 6.0 | 0.00 | 0.19 | 0.01 | 54 | 1007.3 |
| 20260509173114 | 81 | 98 | 2.0 | 7.0 | 0.00 | 0.19 | 0.01 | 55 | 1007.5 |
| 20260509171517 | 81 | 61 | 3.0 | 7.0 | 0.00 | 0.19 | 0.01 | 57 | 1007.9 |
| 20260509170010 | 80 | 87 | 1.0 | 5.0 | 0.00 | 0.19 | 0.01 | 59 | 1008.0 |
| 20260509164509 | 80 | 92 | 2.0 | 6.0 | 0.00 | 0.19 | 0.01 | 61 | 1008.1 |
| 20260509163113 | 79 | 72 | 1.0 | 5.0 | 0.00 | 0.19 | 0.01 | 64 | 1008.2 |
| 20260509161515 | 78 | 98 | 2.0 | 5.0 | 0.00 | 0.19 | 0.01 | 67 | 1008.4 |
| 20260509160020 | 77 | 125 | 2.0 | 7.0 | 0.00 | 0.19 | 0.01 | 70 | 1008.4 |
| 20260509154517 | 76 | 87 | 0.0 | 4.0 | 0.00 | 0.19 | 0.01 | 72 | 1008.4 |
| 20260509153115 | 75 | 139 | 1.0 | 5.0 | 0.00 | 0.19 | 0.01 | 74 | 1008.4 |
| 20260509151522 | 74 | 146 | 0.0 | 2.0 | 0.00 | 0.19 | 0.01 | 74 | 1008.4 |
| 20260509150005 | 72 | 99 | 1.0 | 3.0 | 0.00 | 0.19 | 0.01 | 76 | 1008.6 |
| 20260509144516 | 71 | 107 | 0.0 | 3.0 | 0.00 | 0.19 | 0.01 | 81 | 1008.6 |
| 20260509143112 | 70 | 94 | 1.0 | 3.0 | 0.00 | 0.19 | 0.01 | 82 | 1008.7 |
| 20260509141535 | 68 | 114 | 0.0 | 2.0 | 0.00 | 0.19 | 0.01 | 86 | 1008.8 |
| 20260509140025 | 67 | 114 | 0.0 | 2.0 | 0.00 | 0.19 | 0.01 | 88 | 1009.0 |
| 20260509134523 | 64 | 112 | 0.0 | 5.0 | 0.00 | 0.19 | 0.01 | 93 | 1008.9 |
| 20260509133109 | 62 | 205 | 1.0 | 3.0 | 0.00 | 0.19 | 0.01 | 94 | 1008.9 |
| 20260509131512 | 62 | 201 | 1.0 | 4.0 | 0.00 | 0.19 | 0.01 | 95 | 1008.8 |
| 20260509130023 | 61 | 208 | 0.0 | 2.0 | 0.00 | 0.19 | 0.01 | 96 | 1008.8 |
| 20260509124519 | 59 | 210 | 0.0 | 2.0 | 0.01 | 0.19 | 0.01 | 96 | 1008.7 |
| 20260509123013 | 58 | 212 | 2.0 | 4.0 | 0.01 | 0.19 | 0.01 | 96 | 1008.6 |
| 20260509121510 | 58 | 233 | 0.0 | 4.0 | 0.01 | 0.19 | 0.01 | 96 | 1008.2 |
| 20260509120024 | 57 | 210 | 1.0 | 7.0 | 0.01 | 0.19 | 0.01 | 95 | 1008.2 |
| 20260509114517 | 58 | 73 | 0.0 | 1.0 | 0.00 | 0.18 | 0.00 | 95 | 1007.8 |
| 20260509113116 | 58 | 73 | 0.0 | 1.0 | 0.00 | 0.18 | 0.00 | 95 | 1007.7 |
| 20260509111519 | 59 | 73 | 0.0 | 0.0 | 0.00 | 0.18 | 0.00 | 95 | 1006.9 |
| 20260509110025 | 59 | 73 | 0.0 | 1.0 | 0.00 | 0.18 | 0.00 | 95 | 1006.9 |
| 20260509104505 | 59 | 73 | 0.0 | 2.0 | 0.00 | 0.18 | 0.00 | 94 | 1007.1 |
| 20260509103112 | 60 | 70 | 0.0 | 3.0 | 0.00 | 0.18 | 0.00 | 94 | 1006.9 |
| 20260509101526 | 60 | 79 | 1.0 | 3.0 | 0.00 | 0.18 | 0.00 | 94 | 1006.8 |
| 20260509100024 | 59 | 89 | 0.0 | 3.0 | 0.00 | 0.18 | 0.00 | 94 | 1006.5 |
| 20260509094505 | 60 | 65 | 0.0 | 4.0 | 0.00 | 0.18 | 0.00 | 94 | 1006.2 |
| 20260509093113 | 60 | 91 | 0.0 | 6.0 | 0.00 | 0.18 | 0.00 | 94 | 1006.0 |
| 20260509091523 | 60 | 340 | 0.0 | 2.0 | 0.00 | 0.18 | 0.00 | 94 | 1006.1 |
| 20260509090018 | 60 | 15 | 0.0 | 2.0 | 0.00 | 0.18 | 0.00 | 93 | 1006.4 |
| 20260509084503 | 60 | 72 | 0.0 | 2.0 | 0.00 | 0.18 | 0.00 | 93 | 1006.4 |
| 20260509083107 | 60 | 306 | 0.0 | 2.0 | 0.00 | 0.18 | 0.00 | 93 | 1006.4 |
| 20260509081524 | 61 | 306 | 0.0 | 1.0 | 0.00 | 0.18 | 0.00 | 92 | 1006.6 |
| 20260509080025 | 62 | 274 | 0.0 | 6.0 | 0.00 | 0.18 | 0.00 | 91 | 1006.5 |
| 20260509074511 | 61 | 279 | 2.0 | 6.0 | 0.00 | 0.18 | 0.00 | 92 | 1006.6 |
| 20260509073108 | 61 | 268 | 0.0 | 2.0 | 0.00 | 0.18 | 0.00 | 92 | 1006.7 |
| 20260509071526 | 61 | 237 | 0.0 | 4.0 | 0.00 | 0.18 | 0.00 | 92 | 1006.6 |
| 20260509070014 | 61 | 248 | 1.0 | 4.0 | 0.00 | 0.18 | 0.00 | 93 | 1007.0 |
| 20260509064511 | 61 | 270 | 3.0 | 6.0 | 0.00 | 0.18 | 0.00 | 93 | 1006.9 |
| 20260509063116 | 61 | 262 | 1.0 | 6.0 | 0.00 | 0.18 | 0.00 | 92 | 1007.2 |
| 20260509061505 | 61 | 244 | 0.0 | 4.0 | 0.00 | 0.18 | 0.00 | 92 | 1007.4 |
| 20260509060019 | 62 | 269 | 0.0 | 4.0 | 0.00 | 0.18 | 0.00 | 92 | 1007.3 |
| 20260509054513 | 62 | 244 | 0.0 | 1.0 | 0.00 | 0.18 | 0.00 | 93 | 1007.1 |
| 20260509053002 | 62 | 202 | 0.0 | 4.0 | 0.00 | 0.18 | 0.00 | 93 | 1007.2 |
| 20260509051507 | 63 | 207 | 2.0 | 5.0 | 0.00 | 0.18 | 0.00 | 93 | 1007.5 |
| 20260509050017 | 63 | 213 | 3.0 | 9.0 | 0.00 | 0.18 | 0.18 | 93 | 1007.7 |
| 20260509044515 | 63 | 208 | 1.0 | 6.0 | 0.00 | 0.18 | 0.18 | 93 | 1007.8 |
| 20260509043118 | 62 | 137 | 1.0 | 8.0 | 0.03 | 0.18 | 0.18 | 91 | 1007.6 |
| 20260509041503 | 62 | 118 | 1.0 | 6.0 | 0.08 | 0.18 | 0.18 | 91 | 1006.9 |
| 20260509040014 | 63 | 179 | 3.0 | 7.0 | 0.15 | 0.18 | 0.18 | 90 | 1006.8 |
| 20260509034516 | 64 | 197 | 3.0 | 8.0 | 0.18 | 0.18 | 0.18 | 90 | 1006.4 |
| 20260509033005 | 64 | 294 | 0.0 | 4.0 | 0.15 | 0.15 | 0.15 | 88 | 1007.3 |
| 20260509031506 | 63 | 81 | 4.0 | 8.0 | 0.09 | 0.09 | 0.09 | 85 | 1007.7 |
| 20260509030015 | 67 | 84 | 5.0 | 21.0 | 0.03 | 0.03 | 0.03 | 77 | 1007.5 |
| 20260509024518 | 72 | 60 | 6.0 | 20.0 | 0.00 | 0.00 | 0.00 | 67 | 1006.9 |
| 20260509023001 | 74 | 70 | 11.0 | 20.0 | 0.00 | 0.00 | 0.00 | 71 | 1005.6 |
| 20260509021505 | 74 | 101 | 4.0 | 9.0 | 0.00 | 0.00 | 0.00 | 74 | 1004.6 |
| 20260509020025 | 75 | 101 | 5.0 | 10.0 | 0.00 | 0.00 | 0.00 | 72 | 1003.4 |
| 20260509014535 | 76 | 136 | 4.0 | 12.0 | 0.00 | 0.00 | 0.00 | 71 | 1002.9 |
| 20260509013113 | 77 | 137 | 7.0 | 13.0 | 0.00 | 0.00 | 0.00 | 70 | 1002.6 |
| 20260509011502 | 78 | 141 | 4.0 | 8.0 | 0.00 | 0.00 | 0.00 | 67 | 1002.8 |
| 20260509010010 | 79 | 122 | 1.0 | 8.0 | 0.00 | 0.00 | 0.00 | 65 | 1002.7 |
| 20260509004519 | 81 | 123 | 0.0 | 8.0 | 0.00 | 0.00 | 0.00 | 63 | 1002.6 |
| 20260509003111 | 82 | 68 | 3.0 | 11.0 | 0.00 | 0.00 | 0.00 | 62 | 1002.4 |
| 20260509001517 | 82 | 122 | 3.0 | 12.0 | 0.00 | 0.00 | 0.00 | 60 | 1002.4 |
| 20260509000009 | 83 | 129 | 5.0 | 13.0 | 0.00 | 0.00 | 0.00 | 60 | 1002.6 |
| 20260508234512 | 83 | 117 | 6.0 | 13.0 | 0.00 | 0.00 | 0.00 | 59 | 1002.8 |
| 20260508233117 | 83 | 148 | 6.0 | 15.0 | 0.00 | 0.00 | 0.00 | 59 | 1002.4 |
| 20260508231521 | 84 | 122 | 3.0 | 12.0 | 0.00 | 0.00 | 0.00 | 58 | 1002.6 |
| 20260508230017 | 84 | 148 | 6.0 | 10.0 | 0.00 | 0.00 | 0.00 | 57 | 1002.5 |
| 20260508224509 | 85 | 110 | 3.0 | 11.0 | 0.00 | 0.00 | 0.00 | 55 | 1002.9 |